Terminal Aerodrome Forecast
Issued by NWS King Salmon, AK

Home | Current Version | Previous Version | Text Only | Print | Product List | Glossary On
Versions: 1 2 3 4 5 6 7 8 9 10 11 12 13 14 15
000
FTAK31 PANC 081140
TAFAKN
TAF
PAKN 081140Z 0812/0912 36015G25KT P6SM SCT050 BKN070
     FM081500 36015KT P6SM -SHSN BKN050
     FM082000 35008KT P6SM BKN070=

USA.gov is the U.S. government's official web portal to all federal, state and local government web resources and services.